Time;durP1;ratioP1;P1;durP2;ratioP2;P2;SDS_P1;SDS_P2;PMS_P1;PMS_P2;Temp;Humidity;BMP_temperature;BMP_pressure;BME280_temperature;BME280_humidity;BME280_pressure;Samples;Min_cycle;Max_cycle;Signal;HPM_P1;HPM_P2
2022/08/11 00:01:46;;;;;;;21.88;11.95;;;;;;;20.09;100.00;97608.38;5029686;28;20491;-78
2022/08/11 00:04:13;;;;;;;16.38;10.98;;;;;;;20.03;100.00;97601.66;5024071;28;20078;-78
2022/08/11 00:06:39;;;;;;;16.33;11.35;;;;;;;19.99;100.00;97603.81;5027590;28;20528;-78
2022/08/11 00:09:08;;;;;;;19.30;10.75;;;;;;;19.94;100.00;97606.16;5011258;28;20134;-78
2022/08/11 00:11:36;;;;;;;15.65;10.75;;;;;;;19.93;100.00;97609.84;5011324;28;20094;-78
2022/08/11 00:14:03;;;;;;;13.50;10.60;;;;;;;19.88;100.00;97601.31;5035930;28;20041;-78
2022/08/11 00:16:29;;;;;;;15.45;10.88;;;;;;;19.78;100.00;97594.25;5036091;28;20127;-78
2022/08/11 00:18:56;;;;;;;17.48;10.65;;;;;;;19.67;100.00;97583.56;5038929;28;20104;-78
2022/08/11 00:21:25;;;;;;;15.85;11.07;;;;;;;19.72;100.00;97595.69;5039461;28;20120;-77
2022/08/11 00:23:57;;;;;;;15.50;10.82;;;;;;;19.73;100.00;97605.56;5010929;28;20025;-78
2022/08/11 00:26:24;;;;;;;14.93;10.05;;;;;;;19.65;100.00;97602.75;5027690;28;20408;-78
2022/08/11 00:28:51;;;;;;;14.98;10.48;;;;;;;19.53;100.00;97593.09;5027313;28;20033;-78
2022/08/11 00:31:30;;;;;;;11.48;9.65;;;;;;;19.49;100.00;97591.66;5027526;28;20112;-77
2022/08/11 00:33:58;;;;;;;11.68;9.43;;;;;;;19.43;100.00;97579.56;5039769;28;20115;-78
2022/08/11 00:36:38;;;;;;;13.98;9.93;;;;;;;19.40;100.00;97589.84;5039480;28;20034;-78
2022/08/11 00:39:06;;;;;;;14.90;11.32;;;;;;;19.32;100.00;97582.41;5024550;28;20107;-78
2022/08/11 00:41:34;;;;;;;14.45;10.18;;;;;;;19.22;100.00;97578.03;5047312;28;20025;-78
2022/08/11 00:44:21;;;;;;;25.58;13.93;;;;;;;19.22;100.00;97584.31;5046079;28;20113;-77
2022/08/11 00:47:05;;;;;;;15.95;10.23;;;;;;;19.14;100.00;97588.75;5030479;28;20484;-78
2022/08/11 00:49:50;;;;;;;15.95;10.82;;;;;;;19.14;100.00;97588.75;5043712;28;20022;-78
2022/08/11 00:52:53;;;;;;;13.73;10.88;;;;;;;19.06;100.00;97591.34;5028577;28;20489;-78
2022/08/11 00:55:29;;;;;;;;;;;;;;;19.01;100.00;97591.75;5029548;28;20416;-78
2022/08/11 00:58:10;;;;;;;14.40;11.07;;;;;;;18.90;100.00;97587.38;5027022;27;19920;-78
2022/08/11 01:01:08;;;;;;;14.35;11.10;;;;;;;18.93;100.00;97597.06;5046893;28;20387;-78
2022/08/11 01:04:09;;;;;;;15.85;11.23;;;;;;;18.98;100.00;97599.38;5003929;28;20037;-78
2022/08/11 01:07:00;;;;;;;18.05;11.82;;;;;;;19.02;100.00;97603.47;5038021;28;20045;-78
2022/08/11 01:10:03;;;;;;;15.43;12.15;;;;;;;19.09;100.00;97596.47;5028367;28;20030;-78
2022/08/11 01:13:15;;;;;;;14.13;11.23;;;;;;;19.16;100.00;97600.31;5026483;28;20047;-78
2022/08/11 01:16:13;;;;;;;19.10;12.20;;;;;;;19.18;100.00;97601.88;4987515;28;20556;-78
2022/08/11 01:19:09;;;;;;;18.45;12.32;;;;;;;19.21;100.00;97603.44;5026615;28;20033;-79
2022/08/11 01:21:53;;;;;;;22.88;14.25;;;;;;;19.21;100.00;97607.00;5026771;28;20026;-78
2022/08/11 01:24:42;;;;;;;19.23;13.02;;;;;;;19.22;100.00;97597.88;5027829;28;20029;-78
2022/08/11 01:27:20;;;;;;;15.77;11.57;;;;;;;19.20;100.00;97597.16;5027783;28;20035;-78
2022/08/11 01:30:04;;;;;;;12.45;10.68;;;;;;;19.10;100.00;97604.47;5026500;28;20496;-78
2022/08/11 01:33:07;;;;;;;12.90;9.82;;;;;;;19.05;100.00;97589.63;5028040;28;20057;-78
2022/08/11 01:36:09;;;;;;;14.73;11.35;;;;;;;18.79;100.00;97583.97;5047311;28;20044;-78
2022/08/11 01:39:09;;;;;;;16.77;11.85;;;;;;;18.73;100.00;97590.84;5030758;28;20461;-79
2022/08/11 01:44:56;;;;;;;12.10;10.40;;;;;;;18.74;100.00;97586.25;5027843;28;20106;-78
2022/08/11 01:50:31;;;;;;;16.42;10.82;;;;;;;18.60;100.00;97584.84;5043201;28;20052;-78
2022/08/11 01:53:06;;;;;;;16.30;11.38;;;;;;;18.59;100.00;97577.72;5046084;28;20112;-79
2022/08/11 01:56:07;;;;;;;16.15;11.13;;;;;;;18.54;100.00;97577.31;5042715;28;20037;-78
2022/08/11 01:59:03;;;;;;;15.35;10.10;;;;;;;18.52;100.00;97595.53;5050623;28;20398;-77
2022/08/11 02:01:52;;;;;;;14.88;10.68;;;;;;;18.40;100.00;97583.09;5050093;28;20036;-78
2022/08/11 02:04:59;;;;;;;19.27;10.57;;;;;;;18.36;100.00;97582.53;4991318;28;20124;-78
2022/08/11 02:07:31;;;;;;;15.65;10.75;;;;;;;18.33;100.00;97580.09;5027423;28;20049;-78
2022/08/11 02:13:14;;;;;;;14.05;10.27;;;;;;;18.26;100.00;97578.97;5035802;28;20060;-78
2022/08/11 02:15:51;;;;;;;16.00;10.90;;;;;;;18.30;100.00;97583.09;5039210;28;20029;-78
2022/08/11 02:24:17;;;;;;;13.50;10.45;;;;;;;18.33;100.00;97590.09;5046744;28;20028;-78
2022/08/11 02:27:19;;;;;;;14.25;10.07;;;;;;;18.43;100.00;97588.22;5029383;28;20506;-78
2022/08/11 02:29:45;;;;;;;11.40;9.10;;;;;;;18.43;100.00;97590.94;5020703;28;20415;-78
2022/08/11 02:35:41;;;;;;;17.08;10.75;;;;;;;18.47;100.00;97588.81;5029280;28;20045;-78
2022/08/11 02:38:32;;;;;;;13.15;10.10;;;;;;;18.38;100.00;97590.53;5029539;28;20029;-78
2022/08/11 02:44:36;;;;;;;16.42;10.93;;;;;;;18.43;100.00;97594.50;5031509;28;20081;-78
2022/08/11 02:47:02;;;;;;;16.33;11.57;;;;;;;18.40;100.00;97591.22;5012515;28;20461;-77
2022/08/11 02:49:52;;;;;;;19.05;12.95;;;;;;;18.35;100.00;97594.38;5044713;28;20033;-78
2022/08/11 02:53:04;;;;;;;22.33;15.07;;;;;;;18.19;100.00;97579.69;5050233;28;20377;-78
2022/08/11 02:55:36;;;;;;;23.55;14.15;;;;;;;18.18;100.00;97586.94;5018429;28;20140;-79
2022/08/11 02:58:20;;;;;;;;;;;;;;;18.20;100.00;97592.22;5010212;28;20025;-78
2022/08/11 03:00:52;;;;;;;21.50;16.38;;;;;;;18.17;100.00;97592.50;5028420;28;19920;-79
2022/08/11 03:03:37;;;;;;;20.42;14.60;;;;;;;18.14;100.00;97588.25;5028822;28;20029;-79
2022/08/11 03:06:14;;;;;;;21.40;14.75;;;;;;;18.17;100.00;97592.50;5037354;28;20037;-78
2022/08/11 03:08:52;;;;;;;19.55;13.95;;;;;;;18.23;100.00;97598.22;5048050;28;20489;-79
2022/08/11 03:17:31;;;;;;;20.63;13.90;;;;;;;18.28;100.00;97601.34;5048844;28;20560;-77
2022/08/11 03:20:12;;;;;;;25.65;14.27;;;;;;;18.34;100.00;97599.91;5030792;28;20025;-78
2022/08/11 03:22:51;;;;;;;21.63;14.32;;;;;;;18.38;100.00;97609.50;5033435;28;20509;-78
2022/08/11 03:25:55;;;;;;;19.60;14.25;;;;;;;18.41;100.00;97601.06;5043945;28;20028;-78
2022/08/11 03:28:35;;;;;;;20.10;13.98;;;;;;;18.31;100.00;97600.22;5011816;28;20036;-77
2022/08/11 03:31:27;;;;;;;19.15;13.80;;;;;;;18.19;100.00;97598.63;5038764;28;20404;-77
2022/08/11 03:34:02;;;;;;;18.33;13.68;;;;;;;18.28;100.00;97600.50;5031588;28;20448;-78
2022/08/11 03:37:47;;;;;;;20.15;13.32;;;;;;;18.20;100.00;97603.91;5048246;28;20097;-78
2022/08/11 03:40:06;;;;;;;20.50;14.05;;;;;;;18.18;100.00;97599.66;5048246;28;20230;-78
2022/08/11 03:42:56;;;;;;;19.33;14.05;;;;;;;18.24;100.00;97604.50;5047974;28;20033;-78
2022/08/11 03:45:30;;;;;;;21.58;14.45;;;;;;;18.22;100.00;97599.22;5043206;28;20504;-78
2022/08/11 03:48:09;;;;;;;18.00;13.10;;;;;;;18.23;100.00;97594.66;5027842;28;20484;-77
2022/08/11 03:51:02;;;;;;;20.00;14.48;;;;;;;18.19;100.00;97598.63;5028036;28;20037;-77
2022/08/11 03:54:05;;;;;;;19.65;13.27;;;;;;;18.29;100.00;97604.91;5048823;28;20028;-78
2022/08/11 03:57:17;;;;;;;21.30;13.13;;;;;;;18.37;100.00;97605.91;5033754;28;20445;-79
2022/08/11 04:00:18;;;;;;;19.23;14.88;;;;;;;18.53;100.00;97608.09;5056749;27;20059;-77
2022/08/11 04:02:47;;;;;;;21.13;15.23;;;;;;;18.55;100.00;97597.13;5040443;27;20030;-78
2022/08/11 04:05:43;;;;;;;30.02;20.05;;;;;;;18.57;100.00;97598.69;5038984;28;20041;-78
2022/08/11 04:08:40;;;;;;;17.08;13.10;;;;;;;18.60;100.00;97594.84;5047251;28;20041;-78
2022/08/11 04:11:39;;;;;;;17.10;13.43;;;;;;;18.71;100.00;97600.09;5047500;28;20104;-78
2022/08/11 04:17:31;;;;;;;23.92;16.08;;;;;;;18.70;100.00;97585.69;5033379;28;20036;-78
2022/08/11 04:20:12;;;;;;;30.70;21.25;;;;;;;18.64;100.00;97591.69;5030176;28;20600;-78
2022/08/11 04:22:40;;;;;;;29.90;18.58;;;;;;;18.60;100.00;97587.56;5035760;28;20029;-76
2022/08/11 04:25:46;;;;;;;25.75;18.55;;;;;;;18.62;100.00;97582.00;5037066;28;20399;-76
2022/08/11 04:28:47;;;;;;;28.83;18.65;;;;;;;18.74;100.00;97597.97;5042951;28;20062;-75
2022/08/11 04:31:41;;;;;;;28.88;21.55;;;;;;;18.76;100.00;97605.97;5036927;28;20392;-78
2022/08/11 04:34:25;;;;;;;30.40;21.38;;;;;;;18.78;100.00;97602.09;5012395;28;20029;-77
2022/08/11 04:37:33;;;;;;;31.30;20.52;;;;;;;18.92;100.00;97611.63;5048225;28;20028;-75
2022/08/11 04:40:01;;;;;;;28.98;18.38;;;;;;;19.09;100.00;97612.75;5029438;28;20095;-77
2022/08/11 04:43:19;;;;;;;21.27;16.00;;;;;;;19.29;100.00;97598.97;5030638;28;20036;-76
2022/08/11 04:45:51;;;;;;;23.67;14.95;;;;;;;19.33;100.00;97604.97;5028555;28;20078;-77
2022/08/11 05:07:41;;;;;;;40.20;16.38;;;;;;;20.11;100.00;97600.91;5048695;28;20110;-81
2022/08/11 05:10:09;;;;;;;;;;;;;;;20.13;100.00;97596.16;5032559;28;20025;-82
2022/08/11 05:12:41;;;;;;;39.38;18.73;;;;;;;20.14;100.00;97600.59;5037380;28;19913;-82
2022/08/11 05:35:31;;;;;;;50.42;18.08;;;;;;;23.14;100.00;97581.13;5046488;28;20044;-80
2022/08/11 05:57:31;;;;;;;64.97;26.85;;;;;;;28.92;66.23;97570.66;5042241;28;20055;-81
2022/08/11 06:00:09;;;;;;;64.38;30.27;;;;;;;28.89;64.88;97579.31;5034498;28;20112;-81
2022/08/11 06:02:47;;;;;;;56.80;28.02;;;;;;;29.28;63.43;97569.44;5039776;28;20024;-81
2022/08/11 06:05:13;;;;;;;55.30;24.77;;;;;;;29.96;61.91;97565.34;5016214;28;20120;-81
2022/08/11 06:07:39;;;;;;;56.13;22.63;;;;;;;29.66;61.72;97572.38;5037764;28;20111;-81
2022/08/11 06:10:05;;;;;;;52.72;25.98;;;;;;;30.20;59.29;97566.53;5042195;28;20025;-81
2022/08/11 06:12:36;;;;;;;54.40;21.10;;;;;;;30.59;58.55;97567.22;5019559;28;20085;-82
2022/08/11 06:15:07;;;;;;;30.30;17.75;;;;;;;30.56;59.63;97577.88;5021363;28;20101;-81
2022/08/11 06:17:35;;;;;;;17.23;14.40;;;;;;;31.63;58.09;97575.88;5041437;28;20082;-82
2022/08/11 06:20:08;;;;;;;50.78;20.58;;;;;;;31.89;55.96;97576.69;5040213;28;20448;-82
2022/08/11 06:22:34;;;;;;;51.60;23.52;;;;;;;32.57;54.82;97583.81;5030404;28;20021;-82
2022/08/11 06:25:01;;;;;;;58.25;25.33;;;;;;;33.08;50.50;97563.91;5029000;28;20021;-81
2022/08/11 06:27:30;;;;;;;49.90;25.70;;;;;;;33.82;49.65;97553.28;5031729;28;20032;-83
2022/08/11 06:29:56;;;;;;;55.53;28.30;;;;;;;34.00;49.74;97553.16;5033739;28;20033;-82
2022/08/11 06:32:32;;;;;;;57.42;27.10;;;;;;;33.94;47.45;97537.47;5035177;28;20511;-82
2022/08/11 06:35:09;;;;;;;55.50;26.77;;;;;;;34.57;47.59;97549.44;5046915;28;20025;-82
2022/08/11 06:37:47;;;;;;;51.75;23.77;;;;;;;34.31;48.41;97555.56;5020537;28;20021;-82
2022/08/11 06:40:32;;;;;;;52.03;18.88;;;;;;;32.90;50.54;97561.19;5035677;28;20092;-82
2022/08/11 06:43:04;;;;;;;53.10;18.52;;;;;;;33.05;49.71;97552.41;5039709;28;20009;-82
2022/08/11 06:45:32;;;;;;;;;;;;;;;33.28;49.65;97563.63;5038968;28;20049;-82
2022/08/11 06:48:01;;;;;;;53.78;24.48;;;;;;;32.83;50.21;97565.13;5057907;27;19919;-82
2022/08/11 06:53:15;;;;;;;48.10;21.73;;;;;;;33.71;46.78;97541.13;5036141;28;20085;-82
2022/08/11 07:01:35;;;;;;;54.78;25.77;;;;;;;34.73;45.74;97557.00;5042795;28;20439;-83
2022/08/11 07:04:08;;;;;;;49.65;21.38;;;;;;;34.95;44.71;97553.56;5028039;28;20506;-83
2022/08/11 07:06:38;;;;;;;56.17;23.63;;;;;;;34.92;45.82;97559.63;5037730;28;20507;-83
2022/08/11 07:15:43;;;;;;;51.45;29.50;;;;;;;37.17;38.72;97540.16;5040770;28;20602;-84
2022/08/11 07:30:27;;;;;;;49.20;26.13;;;;;;;37.84;36.05;97535.69;5035355;28;20033;-83
2022/08/11 07:32:58;;;;;;;49.42;27.58;;;;;;;37.61;36.77;97541.69;5029533;28;20030;-83
2022/08/11 07:35:31;;;;;;;49.08;27.00;;;;;;;37.82;36.76;97535.13;5031778;28;20071;-83
2022/08/11 07:38:01;;;;;;;52.33;20.88;;;;;;;37.72;37.86;97532.25;5035057;28;20040;-84
2022/08/11 07:40:28;;;;;;;47.42;24.58;;;;;;;37.61;36.38;97527.72;5029784;28;20033;-84
2022/08/11 07:42:54;;;;;;;45.20;22.85;;;;;;;37.76;36.50;97530.63;5042046;28;20025;-84
2022/08/11 07:53:38;;;;;;;50.53;19.65;;;;;;;36.14;38.90;97527.19;5039114;28;20074;-83
2022/08/11 07:56:14;;;;;;;46.67;22.65;;;;;;;33.81;42.02;97532.19;5028651;28;20540;-83
2022/08/11 08:18:01;;;;;;;55.75;22.15;;;;;;;37.32;35.21;97498.41;5029401;28;20106;-83
2022/08/11 08:20:29;;;;;;;50.13;26.27;;;;;;;37.98;34.65;97506.22;5037474;28;20025;-84
2022/08/11 08:23:00;;;;;;;52.50;24.38;;;;;;;38.44;34.35;97503.66;5035913;28;20040;-82
2022/08/11 08:25:27;;;;;;;54.47;30.52;;;;;;;39.42;32.94;97493.25;5035785;28;20033;-84
2022/08/11 08:27:55;;;;;;;57.85;27.17;;;;;;;39.94;31.93;97493.78;5039665;28;20445;-83
2022/08/11 08:33:06;;;;;;;51.63;29.65;;;;;;;40.27;30.03;97480.28;5041979;28;20060;-83
2022/08/11 08:35:33;;;;;;;63.00;31.85;;;;;;;40.32;30.14;97481.09;5036090;28;20121;-83
2022/08/11 08:37:59;;;;;;;52.22;25.77;;;;;;;41.06;29.09;97460.50;5025339;28;20114;-83
2022/08/11 08:40:25;;;;;;;60.63;31.83;;;;;;;40.20;29.99;97474.13;5030638;28;20032;-83
2022/08/11 08:42:57;;;;;;;64.47;33.80;;;;;;;40.13;30.09;97465.16;5040236;28;20057;-82
2022/08/11 08:45:24;;;;;;;55.13;29.50;;;;;;;39.89;30.46;97468.59;5028391;28;20389;-83
2022/08/11 08:48:00;;;;;;;59.38;33.45;;;;;;;40.16;29.90;97467.41;5028699;28;20025;-83
2022/08/11 08:51:32;;;;;;;54.60;27.33;;;;;;;40.76;29.72;97469.94;5019739;28;20091;-84
2022/08/11 08:53:20;;;;;;;58.65;33.25;;;;;;;40.45;29.05;97460.00;5014175;28;20068;-82
2022/08/11 08:55:49;;;;;;;72.63;38.25;;;;;;;40.35;28.79;97454.41;5019163;28;20033;-83
2022/08/11 08:58:15;;;;;;;59.83;36.03;;;;;;;39.30;29.98;97459.09;5036106;28;20037;-83
2022/08/11 09:00:45;;;;;;;54.63;34.33;;;;;;;37.82;31.57;97450.47;5020498;28;20037;-83
2022/08/11 09:03:12;;;;;;;51.33;27.13;;;;;;;36.71;33.51;97461.53;5039581;28;20040;-83
2022/08/11 09:05:39;;;;;;;46.42;24.90;;;;;;;35.02;37.00;97460.50;5021303;28;20049;-82
2022/08/11 09:08:04;;;;;;;47.53;26.35;;;;;;;34.26;38.40;97461.00;5014471;28;20025;-82
2022/08/11 09:10:31;;;;;;;56.05;24.80;;;;;;;33.99;38.41;97468.19;5034786;28;20085;-82
2022/08/11 09:12:58;;;;;;;44.92;22.00;;;;;;;32.74;40.07;97468.47;5038994;28;20488;-83
2022/08/11 09:15:25;;;;;;;46.42;20.83;;;;;;;31.91;42.04;97472.97;5040933;28;20036;-82
2022/08/11 09:18:02;;;;;;;44.90;19.10;;;;;;;31.37;44.38;97476.53;5033409;28;20112;-82
2022/08/11 09:20:32;;;;;;;51.47;24.20;;;;;;;30.70;44.63;97477.31;5044938;28;20033;-83
2022/08/11 09:28:44;;;;;;;59.63;24.55;;;;;;;36.87;33.94;97437.44;5033658;28;20112;-83
2022/08/11 09:31:11;;;;;;;53.92;28.50;;;;;;;38.77;32.14;97438.00;5040333;28;20029;-84
2022/08/11 09:33:38;;;;;;;54.38;30.98;;;;;;;38.79;31.06;97424.63;5029447;28;20028;-83
2022/08/11 09:40:27;;;;;;;46.58;28.23;;;;;;;39.54;30.52;97426.59;5026195;28;20021;-83
2022/08/11 09:41:36;;;;;;;73.75;43.25;;;;;;;40.58;28.46;97420.94;5034865;28;20056;-83
2022/08/11 09:46:47;;;;;;;50.63;26.77;;;;;;;35.79;33.83;97427.22;5040016;28;20511;-81
2022/08/11 09:49:13;;;;;;;48.95;21.13;;;;;;;34.60;35.60;97423.91;5019771;28;20521;-81
2022/08/11 09:51:40;;;;;;;42.60;17.05;;;;;;;33.93;36.40;97433.06;5024926;28;20033;-81
2022/08/11 09:54:06;;;;;;;49.80;20.73;;;;;;;32.73;38.80;97432.69;5013786;28;20113;-83
2022/08/11 09:59:19;;;;;;;47.35;21.25;;;;;;;32.19;40.34;97434.50;5046075;28;20465;-85
2022/08/11 10:01:47;;;;;;;50.72;23.20;;;;;;;35.03;36.10;97433.53;5030377;28;20043;-83
2022/08/11 10:04:33;;;;;;;55.75;22.17;;;;;;;36.23;34.39;97420.59;5018252;28;20107;-81
2022/08/11 10:07:01;;;;;;;61.25;25.42;;;;;;;37.13;33.16;97416.22;5042404;28;20037;-82
2022/08/11 10:09:40;;;;;;;48.47;26.92;;;;;;;35.53;34.41;97420.44;5028119;28;20400;-82
2022/08/11 10:12:10;;;;;;;44.92;25.98;;;;;;;34.57;36.83;97418.81;5019272;28;20521;-81
2022/08/11 10:17:26;;;;;;;49.15;21.55;;;;;;;33.07;37.27;97411.63;5042771;27;20559;-82
2022/08/11 10:19:52;;;;;;;45.10;26.00;;;;;;;32.94;38.31;97412.72;5021429;28;20503;-81
2022/08/11 10:27:55;;;;;;;48.78;23.52;;;;;;;35.33;33.63;97383.97;5038530;28;20043;-81
2022/08/11 10:35:49;;;;;;;49.03;23.08;;;;;;;32.50;39.23;97391.88;5042674;28;20032;-81
2022/08/11 10:38:14;;;;;;;48.95;18.20;;;;;;;32.09;39.56;97398.22;5013427;28;20030;-82
2022/08/11 10:40:44;;;;;;;50.88;21.08;;;;;;;32.80;38.43;97393.75;5019835;28;20022;-82
2022/08/11 10:43:14;;;;;;;55.63;25.10;;;;;;;35.41;34.24;97377.94;5029737;28;20022;-82
2022/08/11 10:48:28;;;;;;;62.17;32.83;;;;;;;35.41;32.61;97374.34;5039496;28;20409;-80
2022/08/11 10:51:12;;;;;;;55.17;27.83;;;;;;;35.45;33.63;97372.69;5023000;28;20040;-82
2022/08/11 10:59:14;;;;;;;63.67;30.67;;;;;;;33.99;34.92;97368.22;5037826;28;20044;-81
2022/08/11 11:01:42;;;;;;;48.20;23.60;;;;;;;33.52;34.73;97356.38;5025693;28;20377;-81
2022/08/11 11:04:12;;;;;;;85.30;22.65;;;;;;;32.76;35.66;97370.38;5023596;28;20021;-81
2022/08/11 11:06:54;;;;;;;76.78;26.17;;;;;;;32.29;37.48;97363.88;5034049;28;20041;-81
2022/08/11 11:09:31;;;;;;;58.42;21.77;;;;;;;31.33;39.25;97372.97;5031270;28;20024;-80
2022/08/11 11:18:00;;;;;;;52.20;21.80;;;;;;;30.56;40.62;97368.81;5049008;28;20112;-80
2022/08/11 11:20:44;;;;;;;48.53;20.23;;;;;;;30.78;39.18;97362.88;5032076;28;20029;-80
2022/08/11 11:23:15;;;;;;;51.25;19.50;;;;;;;30.83;38.97;97357.53;5033051;28;20101;-81
2022/08/11 11:26:09;;;;;;;55.15;23.15;;;;;;;31.08;38.78;97369.41;5035713;28;20025;-82
2022/08/11 11:29:12;;;;;;;59.67;27.05;;;;;;;31.33;37.54;97361.06;5038506;28;20069;-82
2022/08/11 11:31:52;;;;;;;53.42;18.42;;;;;;;31.03;39.22;97359.06;5046867;28;20060;-81
2022/08/11 11:34:50;;;;;;;83.65;32.40;;;;;;;31.14;38.32;97368.50;5037540;28;20034;-81
2022/08/11 11:37:17;;;;;;;46.78;20.60;;;;;;;30.64;39.69;97364.91;5041185;28;20427;-80
2022/08/11 11:39:42;;;;;;;49.55;23.27;;;;;;;30.41;40.62;97382.13;5037140;28;20033;-81
2022/08/11 11:42:09;;;;;;;50.90;18.83;;;;;;;30.56;40.02;97370.72;5011852;28;20310;-81
2022/08/11 11:44:39;;;;;;;56.80;23.75;;;;;;;30.40;39.92;97360.22;5036602;28;20128;-81
2022/08/11 11:47:06;;;;;;;67.05;21.88;;;;;;;30.32;39.88;97364.09;5026451;28;20037;-81
2022/08/11 11:49:32;;;;;;;103.65;27.13;;;;;;;30.34;40.00;97364.72;5030312;28;20072;-80
2022/08/11 11:51:58;;;;;;;55.40;28.00;;;;;;;30.40;39.79;97369.38;5033751;28;20036;-80
2022/08/11 11:54:27;;;;;;;48.72;22.27;;;;;;;30.10;40.90;97371.03;5031491;28;20062;-80
2022/08/11 11:56:54;;;;;;;50.60;21.83;;;;;;;30.10;40.48;97351.72;5028328;28;20021;-81
2022/08/11 12:02:06;;;;;;;51.25;26.17;;;;;;;30.09;40.06;97361.06;5022548;28;20457;-81
2022/08/11 12:04:32;;;;;;;47.13;22.95;;;;;;;29.87;40.48;97351.47;5027732;28;20029;-80
2022/08/11 12:08:12;;;;;;;48.78;22.60;;;;;;;29.66;41.27;97365.53;5036543;28;20033;-81
2022/08/11 12:09:45;;;;;;;53.10;23.05;;;;;;;29.68;41.62;97369.78;5028082;28;20576;-82
2022/08/11 12:14:55;;;;;;;49.10;21.55;;;;;;;29.82;41.34;97356.78;5040382;28;20502;-81
2022/08/11 12:17:21;;;;;;;50.03;19.42;;;;;;;29.90;42.17;97368.41;5047717;28;20128;-81
2022/08/11 12:19:47;;;;;;;50.33;23.17;;;;;;;30.18;42.23;97367.19;5014727;28;20461;-81
2022/08/11 12:27:55;;;;;;;56.92;34.67;;;;;;;34.49;33.67;97337.75;5071145;28;20523;-81
2022/08/11 12:30:21;;;;;;;63.40;33.75;;;;;;;34.80;33.35;97340.84;5032510;28;20026;-82
2022/08/11 12:32:47;;;;;;;62.55;38.60;;;;;;;35.25;32.34;97331.53;5029716;28;20093;-81
2022/08/11 12:35:14;;;;;;;58.42;31.58;;;;;;;35.10;32.41;97323.78;5041801;28;20465;-82
2022/08/11 12:37:46;;;;;;;56.20;23.65;;;;;;;34.74;32.72;97327.09;5028798;28;20100;-82
2022/08/11 12:45:46;;;;;;;57.55;25.80;;;;;;;36.63;30.83;97314.25;5044263;28;20051;-82
2022/08/11 12:53:58;;;;;;;63.05;27.65;;;;;;;34.04;33.53;97312.75;5037763;28;20116;-81
2022/08/11 13:04:52;;;;;;;57.58;25.48;;;;;;;30.49;39.01;97334.03;5038590;28;20052;-82
2022/08/11 13:07:18;;;;;;;48.53;24.92;;;;;;;30.28;39.94;97340.75;5032791;28;20120;-80
2022/08/11 13:09:45;;;;;;;47.67;24.08;;;;;;;30.06;39.91;97337.53;5035791;28;20554;-82
2022/08/11 13:14:55;;;;;;;35.33;20.25;;;;;;;29.72;40.83;97348.13;5040944;28;20475;-80
2022/08/11 13:17:21;;;;;;;36.30;18.60;;;;;;;30.17;40.38;97344.25;5041657;28;20079;-80
2022/08/11 13:19:48;;;;;;;37.78;20.80;;;;;;;30.98;39.20;97341.44;5030758;28;20519;-81
2022/08/11 13:22:17;;;;;;;37.88;19.30;;;;;;;31.44;38.89;97343.72;5037451;28;20034;-80
2022/08/11 13:24:43;;;;;;;34.28;17.10;;;;;;;31.40;38.84;97343.34;5024328;28;20013;-81
2022/08/11 13:27:11;;;;;;;35.72;15.82;;;;;;;31.65;38.42;97346.88;5036037;28;20161;-81
2022/08/11 13:29:37;;;;;;;44.42;22.55;;;;;;;32.70;35.98;97331.44;5014783;28;20044;-80
2022/08/11 13:32:03;;;;;;;47.53;20.50;;;;;;;34.37;34.42;97328.66;5016101;28;20021;-82
2022/08/11 13:34:30;;;;;;;35.50;18.80;;;;;;;35.88;31.94;97317.91;5040634;28;20031;-81
2022/08/11 13:36:58;;;;;;;35.85;20.17;;;;;;;34.99;32.35;97309.97;5018694;28;20108;-82
2022/08/11 13:39:27;;;;;;;39.92;22.60;;;;;;;35.29;31.86;97302.94;5027036;28;20030;-81
2022/08/11 13:41:58;;;;;;;43.53;19.35;;;;;;;35.57;31.75;97309.41;5024956;28;20108;-81
2022/08/11 13:44:26;;;;;;;38.77;21.03;;;;;;;35.93;31.35;97302.34;5035093;28;20141;-82
2022/08/11 13:46:57;;;;;;;55.92;20.40;;;;;;;36.15;31.35;97303.16;5040710;28;20033;-81
2022/08/11 13:49:23;;;;;;;42.15;30.50;;;;;;;36.20;30.96;97300.44;5035057;28;20082;-82
2022/08/11 13:51:49;;;;;;;51.20;20.83;;;;;;;35.73;31.28;97303.81;5034169;28;20558;-80
2022/08/11 13:54:17;;;;;;;39.25;20.45;;;;;;;34.42;32.63;97298.19;5046456;28;20034;-81
2022/08/11 13:56:45;;;;;;;35.92;14.02;;;;;;;34.03;33.76;97300.81;5035397;28;20053;-81
2022/08/11 13:59:12;;;;;;;34.78;18.30;;;;;;;33.74;34.17;97290.81;5041305;28;20047;-81
2022/08/11 14:01:41;;;;;;;41.35;16.30;;;;;;;32.88;35.32;97291.69;5035185;28;20036;-81
2022/08/11 14:04:23;;;;;;;39.10;16.00;;;;;;;32.11;36.75;97301.13;5043694;28;20116;-80
2022/08/11 14:06:50;;;;;;;;;;;;;;;31.96;37.18;97303.44;5039370;28;20053;-79
2022/08/11 14:09:22;;;;;;;38.60;15.25;;;;;;;31.86;38.30;97298.47;5029952;28;20407;-81
2022/08/11 14:14:34;;;;;;;31.27;19.67;;;;;;;31.07;38.57;97306.94;5054366;27;20465;-81
2022/08/11 14:17:06;;;;;;;34.05;23.38;;;;;;;30.92;39.11;97310.03;5046311;28;20479;-80
2022/08/11 14:19:35;;;;;;;33.35;19.05;;;;;;;31.02;38.91;97306.78;5035689;28;20100;-80
2022/08/11 14:22:07;;;;;;;34.67;18.17;;;;;;;30.87;38.99;97297.97;5033655;28;20033;-80
2022/08/11 14:24:40;;;;;;;29.88;14.88;;;;;;;30.68;39.25;97296.25;5031203;28;20132;-81
2022/08/11 14:27:08;;;;;;;35.72;20.35;;;;;;;30.76;39.09;97298.75;5049408;28;20068;-78
2022/08/11 14:29:37;;;;;;;29.08;17.02;;;;;;;30.77;38.57;97300.41;5044828;28;20033;-79
2022/08/11 14:32:06;;;;;;;31.77;15.30;;;;;;;30.72;38.80;97294.75;5030594;28;20115;-81
2022/08/11 14:34:34;;;;;;;28.00;16.02;;;;;;;30.57;39.53;97304.25;5046707;28;20025;-81
2022/08/11 14:37:06;;;;;;;33.08;16.65;;;;;;;30.42;39.27;97309.28;5027273;28;20017;-81
2022/08/11 14:39:39;;;;;;;32.85;18.40;;;;;;;30.05;39.65;97296.38;5016197;28;20086;-80
2022/08/11 14:47:30;;;;;;;30.67;20.40;;;;;;;30.02;39.69;97299.59;5034711;28;20506;-78
2022/08/11 14:49:58;;;;;;;31.98;17.67;;;;;;;29.85;39.98;97293.75;5040702;28;20036;-79
2022/08/11 14:52:23;;;;;;;32.67;17.60;;;;;;;29.90;39.79;97299.41;5035395;28;20017;-80
2022/08/11 14:57:38;;;;;;;26.23;16.80;;;;;;;29.97;40.21;97302.13;5049081;28;20074;-79
2022/08/11 15:00:06;;;;;;;26.38;13.27;;;;;;;30.05;39.58;97305.50;5031856;28;20029;-79
2022/08/11 15:05:19;;;;;;;37.00;17.85;;;;;;;30.32;39.31;97289.56;5046191;28;20045;-78
2022/08/11 15:07:45;;;;;;;35.50;20.42;;;;;;;30.38;38.49;97280.38;5048546;28;20021;-78
2022/08/11 15:10:11;;;;;;;29.88;20.45;;;;;;;30.47;38.17;97287.34;5051621;28;20032;-78
2022/08/11 15:12:55;;;;;;;28.75;15.07;;;;;;;30.41;38.72;97296.53;5033507;28;20099;-78
2022/08/11 15:18:06;;;;;;;29.75;20.00;;;;;;;30.39;39.23;97293.16;5028692;28;20081;-78
2022/08/11 15:26:05;;;;;;;33.88;22.50;;;;;;;30.55;38.55;97289.78;5034550;28;20032;-79
2022/08/11 15:48:14;;;;;;;29.88;20.42;;;;;;;29.73;40.30;97289.13;5045542;28;20036;-79
2022/08/11 15:50:44;;;;;;;32.13;21.13;;;;;;;29.75;39.77;97284.25;5031185;28;20484;-78
2022/08/11 15:53:46;;;;;;;29.77;17.15;;;;;;;30.05;39.80;97285.34;5033662;28;20119;-79
2022/08/11 15:56:11;;;;;;;;;;;;;;;29.94;40.02;97286.03;5004946;28;20068;-77
2022/08/11 16:04:18;;;;;;;29.48;20.25;;;;;;;29.40;40.56;97283.81;5042131;28;20071;-79
2022/08/11 16:06:49;;;;;;;27.73;17.67;;;;;;;29.14;40.60;97287.47;5025801;28;20518;-79
2022/08/11 16:09:20;;;;;;;30.02;22.95;;;;;;;28.91;40.95;97276.13;5047640;28;20120;-78
2022/08/11 16:11:47;;;;;;;26.98;16.77;;;;;;;28.72;41.39;97285.28;5031746;28;20039;-78
2022/08/11 16:16:58;;;;;;;24.35;15.18;;;;;;;28.49;42.37;97293.97;5034664;28;20546;-78
2022/08/11 16:19:27;;;;;;;34.47;19.92;;;;;;;28.35;42.56;97293.16;5027825;28;20031;-77
2022/08/11 16:21:54;;;;;;;32.47;18.38;;;;;;;28.22;42.49;97306.91;5034889;28;20021;-78
2022/08/11 16:24:21;;;;;;;26.75;19.25;;;;;;;28.04;43.43;97298.41;5027472;28;20055;-78
2022/08/11 16:26:48;;;;;;;29.38;19.00;;;;;;;27.91;43.66;97299.25;5022532;28;20506;-79